Time;durP1;ratioP1;P1;durP2;ratioP2;P2;SDS_P1;SDS_P2;PMS_P1;PMS_P2;Temp;Humidity;BMP_temperature;BMP_pressure;BME280_temperature;BME280_humidity;BME280_pressure;Samples;Min_cycle;Max_cycle;Signal;HPM_P1;HPM_P2
2023/08/01 00:00:12;;;;;;;1.37;0.83;;;;;;;17.34;100.00;99141.31;5081351;28;20217;-82
2023/08/01 00:02:39;;;;;;;0.97;0.90;;;;;;;17.33;100.00;99153.09;5086978;28;20215;-82
2023/08/01 00:05:06;;;;;;;1.83;1.00;;;;;;;17.32;100.00;99160.31;5081666;28;20203;-82
2023/08/01 00:07:32;;;;;;;2.77;1.13;;;;;;;17.30;100.00;99173.09;5088020;28;20226;-82
2023/08/01 00:10:00;;;;;;;2.17;1.10;;;;;;;17.28;100.00;99158.97;5085411;28;20228;-82
2023/08/01 00:12:28;;;;;;;2.63;0.90;;;;;;;17.29;100.00;99162.50;5077016;28;20285;-82
2023/08/01 00:14:54;;;;;;;1.03;0.90;;;;;;;17.29;100.00;99157.13;5090794;28;20220;-82
2023/08/01 00:17:20;;;;;;;1.20;1.07;;;;;;;17.29;100.00;99157.97;5089447;28;20225;-81
2023/08/01 00:19:47;;;;;;;1.17;1.07;;;;;;;17.28;100.00;99147.38;5083665;28;20221;-82
2023/08/01 00:22:14;;;;;;;2.60;0.93;;;;;;;17.26;100.00;99136.78;5082083;28;20300;-81
2023/08/01 00:24:40;;;;;;;1.87;1.07;;;;;;;17.30;100.00;99132.75;5084783;28;20217;-82
2023/08/01 00:27:10;;;;;;;1.47;0.80;;;;;;;17.29;100.00;99124.84;5086092;28;20845;-81
2023/08/01 00:29:37;;;;;;;2.90;1.00;;;;;;;17.30;100.00;99129.22;5082947;28;20705;-81
2023/08/01 00:32:03;;;;;;;3.40;0.83;;;;;;;17.29;100.00;99114.91;5086593;28;20206;-81
2023/08/01 00:34:30;;;;;;;2.67;1.00;;;;;;;17.25;100.00;99118.97;5096051;28;20215;-81
2023/08/01 00:36:57;;;;;;;2.03;0.90;;;;;;;17.27;100.00;99114.25;5091059;28;20228;-82
2023/08/01 00:39:23;;;;;;;1.87;0.90;;;;;;;17.27;100.00;99108.03;5087509;28;20205;-82
2023/08/01 00:41:50;;;;;;;1.93;0.80;;;;;;;17.25;100.00;99102.81;5090607;28;20221;-82
2023/08/01 00:44:18;;;;;;;3.50;0.80;;;;;;;17.25;100.00;99092.06;5084190;28;20219;-82
2023/08/01 00:46:45;;;;;;;1.67;0.70;;;;;;;17.26;100.00;99090.22;5088178;28;20674;-82
2023/08/01 00:49:11;;;;;;;1.03;0.70;;;;;;;17.25;100.00;99084.00;5084706;28;20229;-82
2023/08/01 00:51:38;;;;;;;1.23;0.70;;;;;;;17.25;100.00;99084.00;5098898;28;20209;-82
2023/08/01 00:54:04;;;;;;;1.57;0.70;;;;;;;17.22;100.00;99087.03;5088767;28;20209;-82
2023/08/01 00:56:31;;;;;;;1.80;0.80;;;;;;;17.22;100.00;99087.03;5082090;28;20229;-82
2023/08/01 00:58:57;;;;;;;1.23;0.70;;;;;;;17.21;100.00;99082.66;5089394;28;20221;-82
2023/08/01 01:01:25;;;;;;;0.80;0.60;;;;;;;17.21;100.00;99074.59;5094653;28;20206;-81
2023/08/01 01:03:52;;;;;;;0.97;0.43;;;;;;;17.24;100.00;99073.41;5084027;28;20202;-81
2023/08/01 01:06:25;;;;;;;3.00;0.67;;;;;;;17.23;100.00;99069.88;5085763;28;20225;-81
2023/08/01 01:08:51;;;;;;;1.37;0.63;;;;;;;17.23;100.00;99063.66;5089785;28;20221;-81
2023/08/01 01:11:18;;;;;;;1.20;0.60;;;;;;;17.23;100.00;99055.59;5094818;28;20201;-81
2023/08/01 01:13:44;;;;;;;0.97;0.57;;;;;;;17.21;100.00;99050.38;5091945;28;20288;-81
2023/08/01 01:16:11;;;;;;;5.73;1.27;;;;;;;17.23;100.00;99047.50;5091444;28;20226;-81
2023/08/01 01:18:38;;;;;;;0.80;0.60;;;;;;;17.21;100.00;99042.31;5090522;28;20203;-81
2023/08/01 01:24:38;;;;;;;0.73;0.50;;;;;;;17.21;100.00;99028.03;5069087;28;20209;-81
2023/08/01 01:27:05;;;;;;;1.43;0.50;;;;;;;17.19;100.00;99030.09;5088700;28;20229;-81
2023/08/01 01:29:34;;;;;;;2.17;0.43;;;;;;;17.19;100.00;99030.91;5083248;28;20225;-81
2023/08/01 01:32:01;;;;;;;3.90;0.70;;;;;;;17.20;100.00;99037.94;5087668;28;20218;-81
2023/08/01 01:34:28;;;;;;;2.10;0.50;;;;;;;17.19;100.00;99038.16;5086698;28;20205;-81
2023/08/01 01:36:56;;;;;;;1.50;0.70;;;;;;;17.18;100.00;99037.31;5092715;28;20218;-81
2023/08/01 01:39:23;;;;;;;2.77;0.50;;;;;;;17.18;100.00;99026.56;5082362;28;20211;-81
2023/08/01 01:41:49;;;;;;;0.97;0.70;;;;;;;17.19;100.00;99033.59;5089688;28;20210;-81
2023/08/01 01:44:15;;;;;;;1.03;0.60;;;;;;;17.19;100.00;99022.00;5086724;28;20202;-82
2023/08/01 01:46:42;;;;;;;0.20;0.20;;;;;;;17.19;100.00;99022.84;5089442;28;20225;-82
2023/08/01 01:49:08;;;;;;;1.97;0.40;;;;;;;17.19;100.00;99022.84;5087370;28;20236;-82
2023/08/01 01:51:35;;;;;;;1.30;0.40;;;;;;;17.15;100.00;99018.84;5093732;28;20210;-82
2023/08/01 01:54:03;;;;;;;1.50;0.20;;;;;;;17.09;100.00;99006.09;5091394;28;20248;-81
2023/08/01 01:56:29;;;;;;;1.03;0.30;;;;;;;17.08;100.00;99011.66;5088450;28;20225;-82
2023/08/01 01:58:56;;;;;;;0.97;0.20;;;;;;;17.07;100.00;99004.59;5083458;28;20209;-81
2023/08/01 02:01:22;;;;;;;0.40;0.40;;;;;;;17.07;100.00;99000.03;5091921;28;20861;-81
2023/08/01 02:03:49;;;;;;;0.20;0.20;;;;;;;17.07;100.00;99007.28;5086103;28;20199;-81
2023/08/01 02:06:15;;;;;;;0.33;0.33;;;;;;;17.06;100.00;98990.31;5087256;28;20249;-81
2023/08/01 02:08:42;;;;;;;1.53;0.60;;;;;;;17.05;100.00;98994.00;5087183;28;20203;-81
2023/08/01 02:11:10;;;;;;;0.50;0.23;;;;;;;17.04;100.00;98976.19;5092675;28;20201;-79
2023/08/01 02:13:36;;;;;;;1.80;0.20;;;;;;;17.05;100.00;98975.19;5091534;28;20211;-80
2023/08/01 02:16:03;;;;;;;1.33;0.20;;;;;;;17.06;100.00;98971.47;5091197;28;20230;-80
2023/08/01 02:18:29;;;;;;;0.30;0.20;;;;;;;17.07;100.00;98961.56;5084468;28;20210;-80
2023/08/01 02:20:56;;;;;;;1.03;0.20;;;;;;;17.07;100.00;98951.63;5081325;28;20216;-80
2023/08/01 02:23:22;;;;;;;0.60;0.20;;;;;;;17.09;100.00;98956.84;5083740;28;20202;-82
2023/08/01 02:25:48;;;;;;;0.50;0.23;;;;;;;17.09;100.00;98946.06;5082693;28;20207;-81
2023/08/01 02:28:16;;;;;;;0.10;0.10;;;;;;;17.10;100.00;98948.59;5092682;28;20207;-81
2023/08/01 02:30:43;;;;;;;1.00;0.30;;;;;;;17.11;100.00;98946.72;5082746;28;20229;-81
2023/08/01 02:33:09;;;;;;;0.30;0.20;;;;;;;17.12;100.00;98951.09;5086027;28;20209;-81
2023/08/01 02:35:36;;;;;;;0.50;0.20;;;;;;;17.13;100.00;98947.41;5084605;28;20762;-81
2023/08/01 02:38:03;;;;;;;0.33;0.23;;;;;;;17.14;100.00;98947.22;5087778;28;20840;-80
2023/08/01 02:40:30;;;;;;;0.70;0.30;;;;;;;17.13;100.00;98948.22;5086550;28;20260;-80
2023/08/01 02:42:56;;;;;;;0.87;0.40;;;;;;;17.13;100.00;98928.56;5087577;28;20216;-80
2023/08/01 02:45:25;;;;;;;1.40;0.30;;;;;;;17.14;100.00;98927.56;5093499;28;20206;-80
2023/08/01 02:47:51;;;;;;;4.03;0.40;;;;;;;17.15;100.00;98919.31;5089340;28;20226;-80
2023/08/01 02:50:18;;;;;;;1.67;0.30;;;;;;;17.15;100.00;98913.91;5092334;28;20225;-80
2023/08/01 02:52:44;;;;;;;1.30;0.23;;;;;;;17.17;100.00;98919.13;5090021;28;20207;-80
2023/08/01 02:55:10;;;;;;;0.30;0.30;;;;;;;17.18;100.00;98918.09;5089220;28;20569;-80
2023/08/01 02:57:37;;;;;;;3.77;0.77;;;;;;;17.18;100.00;98918.94;5095010;28;20228;-80
2023/08/01 03:00:05;;;;;;;0.87;0.20;;;;;;;17.19;100.00;98919.78;5086487;28;20199;-81
2023/08/01 03:02:33;;;;;;;2.43;0.47;;;;;;;17.20;100.00;98921.44;5094251;28;20203;-80
2023/08/01 03:05:00;;;;;;;1.73;0.50;;;;;;;17.19;100.00;98909.84;5094302;28;20835;-80
2023/08/01 03:07:26;;;;;;;1.90;0.40;;;;;;;17.18;100.00;98913.56;5082225;28;20217;-81
2023/08/01 03:09:53;;;;;;;0.77;0.40;;;;;;;17.18;100.00;98915.41;5089750;28;20611;-81
2023/08/01 03:12:19;;;;;;;0.73;0.47;;;;;;;17.18;100.00;98915.41;5090818;28;20213;-81
2023/08/01 03:14:47;;;;;;;0.40;0.20;;;;;;;17.16;100.00;98914.75;5091882;28;20202;-80
2023/08/01 03:17:14;;;;;;;0.60;0.20;;;;;;;17.16;100.00;98909.38;5096445;28;20309;-81
2023/08/01 03:19:41;;;;;;;0.00;0.00;;;;;;;17.14;100.00;98906.88;5095868;28;20217;-80
2023/08/01 03:22:08;;;;;;;2.63;0.23;;;;;;;17.12;100.00;98903.50;5092569;28;20197;-80
2023/08/01 03:24:34;;;;;;;2.23;0.10;;;;;;;17.10;100.00;98897.47;5090635;28;20259;-80
2023/08/01 03:27:01;;;;;;;0.60;0.10;;;;;;;17.08;100.00;98886.06;5092097;28;20228;-80
2023/08/01 03:29:27;;;;;;;0.30;0.00;;;;;;;17.08;100.00;98883.38;5088037;28;20239;-80
2023/08/01 03:31:54;;;;;;;2.03;0.27;;;;;;;17.05;100.00;98891.78;5085652;28;20209;-80
2023/08/01 03:34:20;;;;;;;1.80;0.10;;;;;;;17.05;100.00;98889.09;5093624;28;20645;-80
2023/08/01 03:36:48;;;;;;;1.17;0.10;;;;;;;17.05;100.00;98888.28;5094092;28;20229;-80
2023/08/01 03:39:15;;;;;;;0.10;0.10;;;;;;;17.04;100.00;98894.66;5093007;28;20297;-82
2023/08/01 03:41:41;;;;;;;1.80;0.20;;;;;;;17.02;100.00;98901.06;5093589;28;20483;-79
2023/08/01 03:44:08;;;;;;;2.07;0.40;;;;;;;17.03;100.00;98896.53;5087015;28;20395;-80
2023/08/01 03:46:34;;;;;;;1.17;0.50;;;;;;;17.04;100.00;98889.28;5097584;28;20228;-80
2023/08/01 03:49:01;;;;;;;0.93;0.20;;;;;;;17.02;100.00;98870.63;5085855;28;20213;-83
2023/08/01 03:51:27;;;;;;;0.83;0.10;;;;;;;17.00;100.00;98878.09;5089647;28;20234;-80
2023/08/01 03:53:55;;;;;;;0.30;0.10;;;;;;;16.99;100.00;98881.78;5093340;28;20203;-80
2023/08/01 03:56:22;;;;;;;0.83;0.10;;;;;;;16.97;100.00;98878.44;5087492;28;20261;-80
2023/08/01 03:58:48;;;;;;;0.40;0.10;;;;;;;16.96;100.00;98872.22;5091652;28;20205;-80
2023/08/01 04:01:14;;;;;;;0.00;0.00;;;;;;;16.96;100.00;98871.38;5090428;28;20728;-80
2023/08/01 04:03:41;;;;;;;0.03;0.03;;;;;;;16.94;100.00;98868.88;5090091;28;20787;-80
2023/08/01 04:06:08;;;;;;;0.10;0.10;;;;;;;16.93;100.00;98877.97;5092612;28;20728;-81
2023/08/01 04:08:34;;;;;;;1.63;0.20;;;;;;;16.92;100.00;98868.22;5086796;28;20201;-80
2023/08/01 04:11:02;;;;;;;0.27;0.07;;;;;;;16.91;100.00;98871.91;5093326;28;20225;-80
2023/08/01 04:13:29;;;;;;;0.10;0.10;;;;;;;16.90;100.00;98880.16;5091810;28;20694;-82
2023/08/01 04:15:55;;;;;;;0.87;0.27;;;;;;;16.91;100.00;98873.78;5090899;28;20206;-80
2023/08/01 04:18:21;;;;;;;0.33;0.20;;;;;;;16.90;100.00;98870.25;5087733;28;20197;-82
2023/08/01 04:20:48;;;;;;;0.77;0.20;;;;;;;16.92;100.00;98875.44;5087849;28;20205;-82
2023/08/01 04:23:14;;;;;;;1.03;0.20;;;;;;;16.92;100.00;98870.06;5085238;28;20201;-81
2023/08/01 04:25:41;;;;;;;0.43;0.20;;;;;;;16.91;100.00;98863.84;5088761;28;20212;-82
2023/08/01 04:28:09;;;;;;;0.70;0.20;;;;;;;16.93;100.00;98866.38;5092016;28;20207;-82
2023/08/01 04:30:38;;;;;;;0.53;0.10;;;;;;;16.92;100.00;98864.69;5089814;28;20593;-82
2023/08/01 04:33:04;;;;;;;0.20;0.10;;;;;;;16.90;100.00;98866.72;5090582;28;20213;-81
2023/08/01 04:35:31;;;;;;;0.27;0.13;;;;;;;16.87;100.00;98862.53;5085051;28;20217;-82
2023/08/01 04:37:57;;;;;;;0.10;0.10;;;;;;;16.84;100.00;98862.09;5084885;28;20572;-82
2023/08/01 04:40:24;;;;;;;0.27;0.13;;;;;;;16.81;100.00;98857.06;5085202;28;20197;-82
2023/08/01 04:42:51;;;;;;;0.60;0.10;;;;;;;16.78;100.00;98860.09;5089820;28;20206;-82
2023/08/01 04:45:19;;;;;;;0.57;0.30;;;;;;;16.75;100.00;98861.28;5088440;28;20222;-82
2023/08/01 04:47:45;;;;;;;0.20;0.13;;;;;;;16.74;100.00;98865.00;5087284;28;20225;-82
2023/08/01 04:50:12;;;;;;;0.30;0.20;;;;;;;16.74;100.00;98856.09;5082695;28;20228;-82
2023/08/01 04:52:38;;;;;;;0.60;0.20;;;;;;;16.72;100.00;98855.44;5089877;28;20201;-82
2023/08/01 04:55:05;;;;;;;0.93;0.10;;;;;;;16.72;100.00;98855.44;5083051;28;20209;-82
2023/08/01 04:57:32;;;;;;;0.23;0.20;;;;;;;16.71;100.00;98869.91;5085629;28;20241;-83
2023/08/01 04:59:59;;;;;;;0.20;0.10;;;;;;;16.68;100.00;98865.72;5084570;28;20207;-82
2023/08/01 05:02:27;;;;;;;0.40;0.20;;;;;;;16.70;100.00;98865.53;5088537;28;20227;-82
2023/08/01 05:04:53;;;;;;;0.10;0.10;;;;;;;16.69;100.00;98875.44;5081041;28;20209;-81
2023/08/01 05:07:20;;;;;;;0.20;0.20;;;;;;;16.70;100.00;98881.66;5077626;28;20221;-82
2023/08/01 05:09:46;;;;;;;0.20;0.20;;;;;;;16.70;100.00;98874.44;5089858;28;20217;-82
2023/08/01 05:12:13;;;;;;;0.83;0.20;;;;;;;16.73;100.00;98881.31;5091418;28;20223;-82
2023/08/01 05:14:39;;;;;;;0.87;0.20;;;;;;;16.72;100.00;98880.47;5085732;28;20209;-82
2023/08/01 05:17:06;;;;;;;0.27;0.23;;;;;;;16.68;100.00;98876.47;5088316;28;20238;-82
2023/08/01 05:19:34;;;;;;;0.30;0.30;;;;;;;16.66;100.00;98871.25;5083177;28;20292;-83
2023/08/01 05:22:00;;;;;;;1.30;0.40;;;;;;;16.65;100.00;98883.06;5085885;28;20208;-82
2023/08/01 05:24:27;;;;;;;1.77;0.40;;;;;;;16.65;100.00;98877.69;5090601;28;20252;-82
2023/08/01 05:26:53;;;;;;;2.60;0.40;;;;;;;16.63;100.00;98877.03;5089339;28;20224;-82
2023/08/01 05:29:19;;;;;;;1.30;0.40;;;;;;;16.62;100.00;98886.06;5090765;28;20201;-82
2023/08/01 05:31:46;;;;;;;0.67;0.40;;;;;;;16.60;100.00;98887.25;5081611;28;20220;-83
2023/08/01 05:34:12;;;;;;;0.57;0.43;;;;;;;16.59;100.00;98902.53;5090323;28;20224;-83
2023/08/01 05:36:40;;;;;;;0.50;0.30;;;;;;;16.59;100.00;98899.00;5087116;28;20689;-82
2023/08/01 05:39:07;;;;;;;0.97;0.40;;;;;;;16.58;100.00;98905.41;5085675;28;20200;-82
2023/08/01 05:41:33;;;;;;;0.80;0.43;;;;;;;16.58;100.00;98905.41;5089218;28;20543;-82
2023/08/01 05:44:00;;;;;;;1.23;0.63;;;;;;;16.58;100.00;98903.56;5082242;28;20607;-82
2023/08/01 05:46:26;;;;;;;0.57;0.57;;;;;;;16.58;100.00;98900.88;5082566;28;20618;-82
2023/08/01 05:48:53;;;;;;;1.70;0.40;;;;;;;16.57;100.00;98896.50;5090263;28;20208;-82
2023/08/01 05:51:19;;;;;;;0.60;0.60;;;;;;;16.58;100.00;98894.66;5081830;28;20230;-82
2023/08/01 05:53:47;;;;;;;1.37;0.50;;;;;;;16.58;100.00;98900.88;5081499;28;20219;-81
2023/08/01 05:56:14;;;;;;;1.40;0.60;;;;;;;16.59;100.00;98904.38;5086967;28;20228;-82
2023/08/01 05:58:41;;;;;;;1.00;0.70;;;;;;;16.60;100.00;98914.13;5086728;28;20208;-82
2023/08/01 06:01:09;;;;;;;0.93;0.60;;;;;;;16.59;100.00;98907.06;5082982;28;20332;-82
2023/08/01 06:03:35;;;;;;;1.67;0.73;;;;;;;16.60;100.00;98911.44;5083219;28;20663;-82
2023/08/01 06:06:02;;;;;;;0.73;0.60;;;;;;;16.60;100.00;98903.38;5083832;28;20644;-82
2023/08/01 06:08:28;;;;;;;1.50;0.90;;;;;;;16.58;100.00;98906.25;5082023;28;20708;-82
2023/08/01 06:10:56;;;;;;;1.23;0.90;;;;;;;16.59;100.00;98902.53;5089051;28;20232;-82
2023/08/01 06:13:22;;;;;;;1.07;0.80;;;;;;;16.59;100.00;98902.53;5086287;28;20227;-82
2023/08/01 06:15:49;;;;;;;2.20;0.87;;;;;;;16.60;100.00;98901.53;5086799;28;20201;-82
2023/08/01 06:18:15;;;;;;;0.87;0.60;;;;;;;16.59;100.00;98905.22;5082012;28;20202;-82
2023/08/01 06:20:42;;;;;;;1.53;1.00;;;;;;;16.60;100.00;98908.75;5086285;28;20199;-82
2023/08/01 06:23:08;;;;;;;2.03;0.97;;;;;;;16.57;100.00;98904.56;5089224;28;20226;-83
2023/08/01 06:25:35;;;;;;;1.57;0.90;;;;;;;16.58;100.00;98900.03;5082690;28;20221;-82
2023/08/01 06:28:03;;;;;;;0.90;0.77;;;;;;;16.55;100.00;98905.75;5087970;28;20220;-83
2023/08/01 06:30:29;;;;;;;0.80;0.70;;;;;;;16.55;100.00;98897.69;5083033;28;20232;-82
2023/08/01 06:32:56;;;;;;;1.33;1.00;;;;;;;16.55;100.00;98909.28;5085391;28;20663;-82
2023/08/01 06:35:22;;;;;;;1.77;0.63;;;;;;;16.57;100.00;98901.03;5086349;28;20825;-82
2023/08/01 06:37:48;;;;;;;1.37;0.70;;;;;;;16.59;100.00;98907.06;5092426;28;20224;-83
2023/08/01 06:40:15;;;;;;;1.60;0.57;;;;;;;16.61;100.00;98913.94;5081896;28;20215;-82
2023/08/01 06:42:42;;;;;;;1.50;0.50;;;;;;;16.62;100.00;98907.56;5089744;28;20290;-83
2023/08/01 06:45:10;;;;;;;1.60;1.10;;;;;;;16.61;100.00;98918.50;5092641;28;20268;-83
2023/08/01 06:47:37;;;;;;;1.43;0.93;;;;;;;16.64;100.00;98921.69;5096836;28;20715;-82
2023/08/01 06:50:04;;;;;;;0.97;0.80;;;;;;;16.66;100.00;98921.50;5088030;28;20211;-83
2023/08/01 06:52:31;;;;;;;0.70;0.53;;;;;;;16.68;100.00;98924.84;5087958;28;20961;-83
2023/08/01 06:54:57;;;;;;;2.50;0.80;;;;;;;16.70;100.00;98916.59;5086064;28;20703;-83
2023/08/01 06:57:24;;;;;;;1.00;0.70;;;;;;;16.71;100.00;98931.72;5091615;28;20705;-82
2023/08/01 06:59:50;;;;;;;1.70;0.80;;;;;;;16.72;100.00;98919.94;5082720;28;20206;-83
2023/08/01 07:02:18;;;;;;;0.63;0.57;;;;;;;16.74;100.00;98928.69;5093844;28;20197;-82
2023/08/01 07:04:44;;;;;;;0.90;0.60;;;;;;;16.74;100.00;98928.69;5093251;28;20216;-82
2023/08/01 07:07:11;;;;;;;0.83;0.80;;;;;;;16.74;100.00;98934.91;5095566;28;20319;-82
2023/08/01 07:09:40;;;;;;;3.23;1.00;;;;;;;16.73;100.00;98929.69;5088593;28;20238;-82
2023/08/01 07:12:07;;;;;;;1.00;0.90;;;;;;;16.72;100.00;98936.09;5094607;28;20230;-82
2023/08/01 07:14:34;;;;;;;2.57;1.40;;;;;;;16.72;100.00;98942.28;5079652;28;20218;-83
2023/08/01 07:17:00;;;;;;;2.27;1.40;;;;;;;16.71;100.00;98946.00;5084376;28;20230;-83
2023/08/01 07:19:28;;;;;;;2.70;1.50;;;;;;;16.71;100.00;98945.16;5092102;28;20200;-82
2023/08/01 07:21:55;;;;;;;2.50;1.73;;;;;;;16.72;100.00;98950.34;5092863;28;20679;-82
2023/08/01 07:24:21;;;;;;;3.80;2.00;;;;;;;16.73;100.00;98953.88;5094262;28;20679;-82
2023/08/01 07:26:48;;;;;;;3.00;2.00;;;;;;;16.72;100.00;98946.84;5092369;28;20234;-83
2023/08/01 07:29:15;;;;;;;3.53;2.40;;;;;;;16.70;100.00;98941.63;5087189;28;20208;-83
2023/08/01 07:31:42;;;;;;;5.17;2.80;;;;;;;16.70;100.00;98957.75;5081332;28;20230;-83
2023/08/01 07:34:09;;;;;;;5.40;2.60;;;;;;;16.73;100.00;98959.25;5084919;28;20205;-83
2023/08/01 07:36:36;;;;;;;7.63;2.77;;;;;;;16.75;100.00;98954.56;5090252;28;20235;-83
2023/08/01 07:39:03;;;;;;;3.87;2.50;;;;;;;16.78;100.00;98964.94;5086393;28;20216;-82
2023/08/01 07:41:30;;;;;;;4.97;2.70;;;;;;;16.82;100.00;98958.22;5089744;28;20595;-83
2023/08/01 07:43:56;;;;;;;4.83;2.90;;;;;;;16.82;100.00;98967.13;5087682;28;20569;-83
2023/08/01 07:46:23;;;;;;;4.03;2.57;;;;;;;16.86;100.00;98962.19;5090322;28;20801;-83
2023/08/01 07:48:50;;;;;;;4.33;2.77;;;;;;;16.88;100.00;98976.31;5076187;28;20196;-83
2023/08/01 07:51:17;;;;;;;3.67;2.60;;;;;;;16.92;100.00;98977.63;5089359;28;20252;-83
2023/08/01 07:53:45;;;;;;;4.07;2.40;;;;;;;16.98;100.00;98982.31;5088175;28;20237;-83
2023/08/01 07:56:11;;;;;;;4.67;3.00;;;;;;;17.02;100.00;98972.84;5097110;28;20234;-83
2023/08/01 07:58:38;;;;;;;3.50;2.80;;;;;;;17.05;100.00;98980.56;5084521;28;20216;-83
2023/08/01 08:01:05;;;;;;;5.23;2.50;;;;;;;17.07;100.00;98978.53;5096609;28;20212;-83
2023/08/01 08:03:31;;;;;;;6.03;3.17;;;;;;;17.08;100.00;98982.91;5087979;28;20213;-83
2023/08/01 08:05:58;;;;;;;5.83;3.57;;;;;;;17.09;100.00;98975.66;5085501;28;20699;-83
2023/08/01 08:08:24;;;;;;;5.37;3.47;;;;;;;17.11;100.00;98985.22;5086866;28;20205;-83
2023/08/01 08:10:52;;;;;;;5.40;3.10;;;;;;;17.15;100.00;98978.47;5094790;28;20783;-82
2023/08/01 08:13:20;;;;;;;4.57;2.67;;;;;;;17.20;100.00;98978.75;5092025;28;20219;-82
2023/08/01 08:15:46;;;;;;;6.53;2.60;;;;;;;17.25;100.00;98984.44;5089833;28;20207;-84
2023/08/01 08:18:13;;;;;;;3.30;2.60;;;;;;;17.28;100.00;98980.56;5088993;28;20200;-83
2023/08/01 08:20:43;;;;;;;5.23;2.80;;;;;;;17.37;100.00;98992.09;5096007;28;20216;-83
2023/08/01 08:23:09;;;;;;;5.13;3.17;;;;;;;17.48;100.00;98989.81;5090561;28;20210;-83
2023/08/01 08:25:36;;;;;;;7.37;3.67;;;;;;;17.59;100.00;98980.44;5083407;28;20209;-83
2023/08/01 08:28:04;;;;;;;5.07;3.10;;;;;;;17.75;100.00;98985.72;5091108;28;20355;-83
2023/08/01 08:30:30;;;;;;;4.10;2.83;;;;;;;17.87;100.00;98978.03;5085183;28;20217;-83
2023/08/01 08:32:58;;;;;;;5.67;2.63;;;;;;;17.96;100.00;98982.31;5080749;28;20230;-83
2023/08/01 08:35:24;;;;;;;5.13;2.93;;;;;;;18.04;100.00;98969.59;5073553;28;20229;-83
2023/08/01 08:37:51;;;;;;;4.87;2.90;;;;;;;18.13;100.00;98972.19;5088670;28;20229;-83
2023/08/01 08:40:17;;;;;;;5.00;2.83;;;;;;;18.24;100.00;98971.72;5091649;28;20214;-83
2023/08/01 08:42:46;;;;;;;8.57;4.17;;;;;;;18.34;100.00;98972.28;5091682;28;20677;-83
2023/08/01 08:45:18;;;;;;;4.13;2.80;;;;;;;18.48;100.00;98971.41;5083354;28;20209;-83
2023/08/01 08:47:47;;;;;;;5.53;3.57;;;;;;;18.63;99.60;98971.44;5092224;28;20602;-83
2023/08/01 08:50:15;;;;;;;6.03;2.80;;;;;;;18.82;99.00;98973.50;5088796;28;20199;-83
2023/08/01 08:52:41;;;;;;;4.60;3.07;;;;;;;19.01;96.96;98977.44;5083452;28;20227;-82
2023/08/01 08:55:08;;;;;;;4.50;2.57;;;;;;;19.11;93.60;98985.25;5091874;28;20219;-83
2023/08/01 08:57:35;;;;;;;5.07;2.80;;;;;;;19.16;91.64;98975.53;5091863;28;20608;-83
2023/08/01 09:00:05;;;;;;;5.73;2.67;;;;;;;19.23;90.51;98975.59;5090809;28;20209;-82
2023/08/01 09:02:33;;;;;;;4.83;2.80;;;;;;;19.38;90.64;98968.25;5091353;28;20211;-83
2023/08/01 09:05:00;;;;;;;4.40;2.53;;;;;;;19.52;88.80;98959.28;5090141;28;20208;-83
2023/08/01 09:07:31;;;;;;;6.30;2.27;;;;;;;19.55;85.68;98956.16;5094631;28;20233;-82
2023/08/01 09:09:57;;;;;;;5.23;2.10;;;;;;;19.61;85.06;98952.69;5074794;28;20203;-83
2023/08/01 09:12:24;;;;;;;3.00;2.20;;;;;;;19.69;84.04;98955.25;5090739;28;20223;-83
2023/08/01 09:14:51;;;;;;;5.10;2.20;;;;;;;19.79;82.51;98967.56;5087854;28;20208;-83
2023/08/01 09:17:18;;;;;;;5.00;2.10;;;;;;;19.80;80.62;98974.66;5095936;28;20234;-83
2023/08/01 09:19:46;;;;;;;4.53;2.20;;;;;;;19.77;79.44;98974.00;5087754;28;20243;-83
2023/08/01 09:22:12;;;;;;;2.10;1.70;;;;;;;19.82;79.60;98981.53;5086619;28;20202;-82
2023/08/01 09:24:39;;;;;;;3.37;2.30;;;;;;;19.93;79.74;98975.56;5077864;28;20214;-82
2023/08/01 09:27:08;;;;;;;3.43;2.10;;;;;;;20.00;78.43;98976.47;5083652;28;20248;-83
2023/08/01 09:29:34;;;;;;;2.75;1.83;;;;;;;20.08;77.32;98970.88;5087802;28;20248;-83
2023/08/01 09:32:11;;;;;;;2.90;1.80;;;;;;;20.16;77.35;98966.38;5084623;28;20235;-83
2023/08/01 09:34:38;;;;;;;3.80;1.70;;;;;;;20.33;77.58;98959.59;5091864;28;20200;-83
2023/08/01 09:37:06;;;;;;;9.55;2.72;;;;;;;20.45;77.12;98953.44;5085869;28;20228;-83
2023/08/01 09:39:34;;;;;;;3.80;2.10;;;;;;;20.58;76.77;98959.94;5088967;28;20212;-83
2023/08/01 09:42:02;;;;;;;3.28;1.92;;;;;;;20.71;76.72;98958.13;5091368;28;20207;-83
2023/08/01 09:44:30;;;;;;;3.53;1.90;;;;;;;20.87;75.51;98950.66;5079015;28;20214;-83
2023/08/01 09:46:58;;;;;;;3.50;2.13;;;;;;;20.88;73.30;98949.63;5087462;28;20232;-83
2023/08/01 09:49:24;;;;;;;2.78;1.70;;;;;;;21.00;74.30;98958.81;5087244;28;20205;-83
2023/08/01 09:51:52;;;;;;;2.75;1.60;;;;;;;21.15;74.61;98951.34;5080158;28;20691;-82
2023/08/01 09:54:20;;;;;;;4.10;1.67;;;;;;;21.28;71.86;98953.28;5086078;28;20215;-83
2023/08/01 09:56:48;;;;;;;3.63;1.40;;;;;;;21.35;71.16;98962.22;5089785;28;20236;-82
2023/08/01 09:59:19;;;;;;;4.57;1.73;;;;;;;21.42;70.07;98957.66;5092143;28;20541;-83
2023/08/01 10:01:50;;;;;;;3.25;1.60;;;;;;;21.51;69.41;98963.69;5080102;28;20198;-82
2023/08/01 10:04:19;;;;;;;2.35;1.60;;;;;;;21.62;68.80;98974.75;5084881;28;20196;-82
2023/08/01 10:06:49;;;;;;;1.85;1.30;;;;;;;21.71;67.01;98968.06;5081393;28;20227;-82
2023/08/01 10:09:17;;;;;;;2.05;1.50;;;;;;;21.74;64.80;98969.53;5086208;28;20209;-82
2023/08/01 10:11:45;;;;;;;2.90;1.50;;;;;;;21.77;65.02;98979.94;5083327;28;20231;-82
2023/08/01 10:14:12;;;;;;;3.28;1.55;;;;;;;21.85;64.70;98987.03;5080542;28;20204;-81
2023/08/01 10:16:39;;;;;;;2.55;1.35;;;;;;;21.89;64.84;98985.56;5092277;28;20220;-82
2023/08/01 10:19:08;;;;;;;3.33;1.55;;;;;;;21.95;64.29;98990.97;5081304;28;20204;-82
2023/08/01 10:21:36;;;;;;;5.03;2.20;;;;;;;21.98;64.29;98987.03;5089580;28;20204;-82
2023/08/01 10:24:05;;;;;;;3.33;1.58;;;;;;;22.04;64.74;98984.31;5095227;28;20782;-82
2023/08/01 10:26:32;;;;;;;4.05;1.58;;;;;;;22.17;64.79;98992.44;5088117;28;20228;-82
2023/08/01 10:29:02;;;;;;;3.72;1.60;;;;;;;22.26;63.70;98986.78;5086260;28;20208;-82
2023/08/01 10:31:29;;;;;;;1.77;1.15;;;;;;;22.31;62.86;98982.38;5078573;28;20234;-82
2023/08/01 10:34:05;;;;;;;2.78;1.33;;;;;;;22.42;63.20;98987.13;5074421;28;20201;-82
2023/08/01 10:36:32;;;;;;;3.22;1.48;;;;;;;22.43;60.41;98983.38;5074392;28;20271;-82
2023/08/01 10:39:00;;;;;;;2.20;1.30;;;;;;;22.36;60.17;98995.31;5080019;28;20208;-82
2023/08/01 10:41:28;;;;;;;1.92;1.30;;;;;;;22.34;61.19;98983.84;5089431;28;20215;-82
2023/08/01 10:44:07;;;;;;;3.28;1.55;;;;;;;22.30;60.23;98988.84;5094325;28;20207;-82
2023/08/01 10:46:47;;;;;;;1.35;1.20;;;;;;;22.31;60.76;98992.41;5094573;28;20609;-82
2023/08/01 10:49:13;;;;;;;2.88;1.20;;;;;;;22.31;60.26;98990.53;5093616;28;20208;-82
2023/08/01 10:51:40;;;;;;;3.22;1.65;;;;;;;22.36;60.49;98995.31;5085477;28;20255;-82
2023/08/01 10:54:06;;;;;;;2.55;1.48;;;;;;;22.41;59.82;98990.06;5074373;28;20201;-82
2023/08/01 10:56:33;;;;;;;3.33;1.50;;;;;;;22.37;59.10;98973.41;5091010;28;20234;-82
2023/08/01 10:59:00;;;;;;;2.35;1.40;;;;;;;22.35;58.63;98985.50;5094330;28;20297;-82
2023/08/01 11:01:28;;;;;;;2.95;1.10;;;;;;;22.41;58.76;98987.34;5087240;28;20213;-82
2023/08/01 11:03:54;;;;;;;1.88;1.15;;;;;;;22.45;58.37;98977.75;5073991;28;20203;-82
2023/08/01 11:06:20;;;;;;;2.67;1.23;;;;;;;22.44;57.45;98981.50;5073815;28;20236;-82
2023/08/01 11:08:47;;;;;;;2.33;1.30;;;;;;;22.48;57.83;98982.75;5073573;28;20200;-82
2023/08/01 11:11:15;;;;;;;1.55;0.98;;;;;;;22.58;58.02;98983.13;5078387;28;20192;-82
2023/08/01 11:13:42;;;;;;;4.20;1.20;;;;;;;22.62;56.99;98987.06;5084879;28;20704;-82
2023/08/01 11:16:08;;;;;;;2.85;1.23;;;;;;;22.65;56.46;98985.81;5073935;28;20215;-82
2023/08/01 11:18:43;;;;;;;2.08;1.10;;;;;;;22.71;56.48;98993.09;5073651;28;20204;-82
2023/08/01 11:21:09;;;;;;;4.32;1.40;;;;;;;22.80;56.68;98992.66;5086437;28;20194;-82
2023/08/01 11:23:36;;;;;;;3.38;1.20;;;;;;;22.75;55.36;98986.19;5093580;28;20562;-82
2023/08/01 11:26:07;;;;;;;2.60;1.08;;;;;;;22.73;56.09;98994.56;5090020;28;20212;-82
2023/08/01 11:28:34;;;;;;;1.30;1.20;;;;;;;22.79;56.83;99001.84;5090573;28;20217;-82